Time;durP1;ratioP1;P1;durP2;ratioP2;P2;SDS_P1;SDS_P2;PMS_P1;PMS_P2;Temp;Humidity;BMP_temperature;BMP_pressure;BME280_temperature;BME280_humidity;BME280_pressure;Samples;Min_cycle;Max_cycle;Signal;HPM_P1;HPM_P2
2023/07/17 00:02:25;;;;;;;;;;;22.50;58.00;;;;;;5094791;28;20270;-58
2023/07/17 00:04:50;;;;;;;;;;;22.50;57.90;;;;;;5093671;28;19923;-58
2023/07/17 00:07:16;;;;;;;;;;;22.50;58.00;;;;;;5076227;28;19920;-58
2023/07/17 00:09:43;;;;;;;;;;;22.50;58.00;;;;;;5093320;28;19920;-58
2023/07/17 00:12:09;;;;;;;;;;;22.50;58.00;;;;;;5076614;28;20363;-58
2023/07/17 00:14:34;;;;;;;;;;;22.50;58.00;;;;;;5076402;28;19958;-58
2023/07/17 00:17:00;;;;;;;;;;;22.50;58.00;;;;;;5076493;28;19920;-58
2023/07/17 00:19:25;;;;;;;;;;;22.40;57.90;;;;;;5076545;28;19916;-58
2023/07/17 00:21:51;;;;;;;;;;;22.50;58.00;;;;;;5094202;28;19916;-58
2023/07/17 00:24:17;;;;;;;;;;;22.50;58.00;;;;;;5076192;28;20033;-58
2023/07/17 00:26:42;;;;;;;;;;;22.40;57.90;;;;;;5094145;28;19943;-58
2023/07/17 00:29:24;;;;;;;;;;;22.40;57.90;;;;;;5076179;28;19920;-58
2023/07/17 00:31:50;;;;;;;;;;;22.40;57.90;;;;;;5076270;28;20264;-58
2023/07/17 00:34:16;;;;;;;;;;;22.40;57.90;;;;;;5094117;28;19951;-58
2023/07/17 00:36:42;;;;;;;;;;;22.40;57.90;;;;;;5075831;28;19916;-58
2023/07/17 00:39:07;;;;;;;;;;;22.40;57.90;;;;;;5076103;28;20038;-58
2023/07/17 00:41:33;;;;;;;;;;;22.40;57.90;;;;;;5076100;28;19998;-58
2023/07/17 00:43:58;;;;;;;;;;;22.40;57.90;;;;;;5075776;28;19915;-58
2023/07/17 00:46:24;;;;;;;;;;;22.40;57.90;;;;;;5075457;28;19939;-58
2023/07/17 00:48:49;;;;;;;;;;;22.40;57.90;;;;;;5075486;28;19920;-58
2023/07/17 00:51:15;;;;;;;;;;;22.40;57.90;;;;;;5075850;28;20023;-58
2023/07/17 00:53:42;;;;;;;;;;;22.40;57.90;;;;;;5075898;28;19967;-58
2023/07/17 00:56:08;;;;;;;;;;;22.40;57.90;;;;;;5075514;28;19916;-58
2023/07/17 00:58:33;;;;;;;;;;;22.40;57.90;;;;;;5075383;28;20011;-58
2023/07/17 01:00:59;;;;;;;;;;;22.40;57.90;;;;;;5093589;28;20252;-58
2023/07/17 01:03:24;;;;;;;;;;;22.40;57.90;;;;;;5075301;28;19971;-58
2023/07/17 01:05:50;;;;;;;;;;;22.40;57.90;;;;;;5075311;28;19916;-58
2023/07/17 01:08:16;;;;;;;;;;;22.40;57.90;;;;;;5061630;28;19924;-58
2023/07/17 01:10:41;;;;;;;;;;;22.40;57.90;;;;;;5053390;28;19917;-58
2023/07/17 01:13:10;;;;;;;;;;;22.30;57.80;;;;;;5053152;28;19939;-58
2023/07/17 01:15:35;;;;;;;;;;;22.40;57.90;;;;;;5052203;28;19931;-58
2023/07/17 01:18:01;;;;;;;;;;;22.40;57.90;;;;;;5052057;28;19991;-58
2023/07/17 01:20:26;;;;;;;;;;;22.30;57.80;;;;;;5053113;28;19916;-59
2023/07/17 01:22:54;;;;;;;;;;;22.30;57.90;;;;;;5051565;28;20339;-58
2023/07/17 01:25:20;;;;;;;;;;;22.30;57.80;;;;;;5051950;28;19917;-58
2023/07/17 01:27:45;;;;;;;;;;;22.30;57.80;;;;;;5051671;28;19966;-58
2023/07/17 01:30:11;;;;;;;;;;;22.30;57.80;;;;;;5051590;28;20011;-58
2023/07/17 01:32:36;;;;;;;;;;;22.30;57.80;;;;;;5052867;28;19917;-58
2023/07/17 01:35:03;;;;;;;;;;;22.30;57.80;;;;;;5052699;28;19995;-58
2023/07/17 01:37:29;;;;;;;;;;;22.30;57.80;;;;;;5051345;28;19943;-58
2023/07/17 01:39:54;;;;;;;;;;;22.30;57.80;;;;;;5051262;28;19917;-58
2023/07/17 01:42:19;;;;;;;;;;;22.30;57.80;;;;;;5052740;28;19962;-58
2023/07/17 01:44:45;;;;;;;;;;;22.30;57.80;;;;;;5051262;28;19932;-58
2023/07/17 01:47:10;;;;;;;;;;;22.30;57.80;;;;;;5052689;28;20011;-58
2023/07/17 01:49:36;;;;;;;;;;;22.30;57.80;;;;;;5051067;28;19947;-58
2023/07/17 01:52:02;;;;;;;;;;;22.30;57.80;;;;;;5052402;28;19916;-58
2023/07/17 01:54:27;;;;;;;;;;;22.20;57.70;;;;;;5067817;28;19920;-58
2023/07/17 01:56:53;;;;;;;;;;;22.30;57.70;;;;;;5051467;28;20045;-59
2023/07/17 01:59:18;;;;;;;;;;;22.30;57.80;;;;;;5052495;28;19917;-58
2023/07/17 02:01:43;;;;;;;;;;;22.20;57.70;;;;;;5051310;28;19947;-57
2023/07/17 02:04:10;;;;;;;;;;;22.20;57.70;;;;;;5051079;28;19924;-58
2023/07/17 02:06:35;;;;;;;;;;;22.20;57.70;;;;;;5051316;28;20368;-58
2023/07/17 02:09:01;;;;;;;;;;;22.20;57.70;;;;;;5050643;28;19921;-59
2023/07/17 02:11:29;;;;;;;;;;;22.20;57.70;;;;;;5052327;28;19921;-58
2023/07/17 02:13:54;;;;;;;;;;;22.20;57.70;;;;;;5051214;28;20316;-58
2023/07/17 02:16:20;;;;;;;;;;;22.20;57.70;;;;;;5051123;28;19988;-58
2023/07/17 02:18:46;;;;;;;;;;;22.20;57.70;;;;;;5051230;28;20016;-58
2023/07/17 02:21:11;;;;;;;;;;;22.20;57.70;;;;;;5051198;28;19917;-58
2023/07/17 02:23:37;;;;;;;;;;;22.20;57.70;;;;;;5050817;28;19925;-58
2023/07/17 02:26:03;;;;;;;;;;;22.20;57.80;;;;;;5051095;28;20299;-58
2023/07/17 02:28:29;;;;;;;;;;;22.20;57.70;;;;;;5050761;28;20376;-58
2023/07/17 02:30:54;;;;;;;;;;;22.20;57.70;;;;;;5051103;28;19924;-58
2023/07/17 02:33:19;;;;;;;;;;;22.10;57.70;;;;;;5050835;28;19921;-58
2023/07/17 02:35:45;;;;;;;;;;;22.20;57.70;;;;;;5051005;28;19916;-58
2023/07/17 02:38:11;;;;;;;;;;;22.10;57.70;;;;;;5051224;28;20003;-58
2023/07/17 02:40:36;;;;;;;;;;;22.10;57.70;;;;;;5050558;28;19916;-58
2023/07/17 02:43:02;;;;;;;;;;;22.10;57.70;;;;;;5052199;28;20011;-58
2023/07/17 02:45:27;;;;;;;;;;;22.10;57.70;;;;;;5050974;28;19916;-58
2023/07/17 02:47:53;;;;;;;;;;;22.10;58.40;;;;;;5050822;28;19996;-58
2023/07/17 02:50:21;;;;;;;;;;;22.10;57.70;;;;;;5052512;28;19917;-58
2023/07/17 02:52:47;;;;;;;;;;;22.10;57.70;;;;;;5054552;28;19917;-58
2023/07/17 02:55:13;;;;;;;;;;;22.10;57.70;;;;;;5055650;28;19920;-58
2023/07/17 02:57:38;;;;;;;;;;;22.10;57.70;;;;;;5054766;28;19952;-58
2023/07/17 03:00:08;;;;;;;;;;;22.10;57.70;;;;;;5054378;28;19967;-58
2023/07/17 03:02:34;;;;;;;;;;;22.10;57.80;;;;;;5054664;28;19964;-58
2023/07/17 03:05:02;;;;;;;;;;;22.00;57.70;;;;;;5054549;28;19943;-58
2023/07/17 03:07:28;;;;;;;;;;;22.00;57.70;;;;;;5058015;28;19920;-58
2023/07/17 03:09:53;;;;;;;;;;;22.10;57.80;;;;;;5074081;28;19927;-58
2023/07/17 03:12:19;;;;;;;;;;;22.10;57.70;;;;;;5074069;28;19916;-58
2023/07/17 03:14:44;;;;;;;;;;;22.00;57.70;;;;;;5074149;28;19917;-57
2023/07/17 03:17:10;;;;;;;;;;;22.10;57.80;;;;;;5074348;28;20358;-58
2023/07/17 03:19:35;;;;;;;;;;;22.00;57.80;;;;;;5075387;28;19917;-58
2023/07/17 03:22:01;;;;;;;;;;;22.00;57.80;;;;;;5073951;28;20019;-58
2023/07/17 03:24:26;;;;;;;;;;;22.00;57.80;;;;;;5073887;28;19923;-58
2023/07/17 03:26:52;;;;;;;;;;;22.00;57.80;;;;;;5070212;28;19995;-57
2023/07/17 03:29:17;;;;;;;;;;;22.00;57.80;;;;;;5055069;28;19921;-58
2023/07/17 03:31:43;;;;;;;;;;;22.00;57.80;;;;;;5053763;28;19916;-59
2023/07/17 03:34:09;;;;;;;;;;;22.00;57.80;;;;;;5054059;28;19917;-58
2023/07/17 03:36:34;;;;;;;;;;;22.00;57.80;;;;;;5053676;28;20326;-58
2023/07/17 03:39:00;;;;;;;;;;;22.00;57.80;;;;;;5053934;28;19931;-58
2023/07/17 03:41:26;;;;;;;;;;;22.00;57.80;;;;;;5054834;28;20375;-57
2023/07/17 03:43:52;;;;;;;;;;;22.00;57.80;;;;;;5053571;28;19924;-57
2023/07/17 03:46:17;;;;;;;;;;;21.90;57.80;;;;;;5053910;28;19917;-58
2023/07/17 03:48:43;;;;;;;;;;;22.00;57.80;;;;;;5053390;28;19990;-58
2023/07/17 03:51:08;;;;;;;;;;;22.00;57.80;;;;;;5054830;28;19923;-58
2023/07/17 03:53:34;;;;;;;;;;;21.90;57.80;;;;;;5054699;28;20373;-58
2023/07/17 03:55:59;;;;;;;;;;;21.90;57.80;;;;;;5053407;28;20284;-58
2023/07/17 03:58:27;;;;;;;;;;;21.90;57.80;;;;;;5054555;28;19989;-58
2023/07/17 04:00:52;;;;;;;;;;;21.90;57.80;;;;;;5054294;28;20030;-58
2023/07/17 04:03:18;;;;;;;;;;;21.90;57.80;;;;;;5053481;28;19916;-58
2023/07/17 04:05:44;;;;;;;;;;;21.90;57.80;;;;;;5053246;28;19917;-58
2023/07/17 04:08:09;;;;;;;;;;;21.90;57.80;;;;;;5053096;28;19920;-58
2023/07/17 04:10:35;;;;;;;;;;;21.90;57.80;;;;;;5052422;28;19970;-58
2023/07/17 04:13:00;;;;;;;;;;;21.90;57.80;;;;;;5053967;28;19916;-59
2023/07/17 04:15:26;;;;;;;;;;;21.90;57.80;;;;;;5053034;28;20023;-58
2023/07/17 04:17:51;;;;;;;;;;;21.90;57.80;;;;;;5054252;28;19955;-58
2023/07/17 04:20:17;;;;;;;;;;;21.90;57.80;;;;;;5053233;28;20253;-58
2023/07/17 04:22:42;;;;;;;;;;;21.80;57.80;;;;;;5053148;28;20390;-58
2023/07/17 04:25:08;;;;;;;;;;;21.90;57.80;;;;;;5052793;28;19952;-58
2023/07/17 04:27:33;;;;;;;;;;;21.90;57.80;;;;;;5052696;28;19924;-58
2023/07/17 04:29:59;;;;;;;;;;;21.80;57.80;;;;;;5052602;28;20287;-58
2023/07/17 04:32:24;;;;;;;;;;;21.80;57.80;;;;;;5054176;28;19923;-58
2023/07/17 04:34:50;;;;;;;;;;;21.80;57.80;;;;;;5052915;28;19917;-58
2023/07/17 04:37:17;;;;;;;;;;;21.80;57.80;;;;;;5052100;28;19921;-58
2023/07/17 04:39:42;;;;;;;;;;;21.80;57.80;;;;;;5053737;28;20331;-58
2023/07/17 04:42:09;;;;;;;;;;;21.80;57.80;;;;;;5052438;28;19924;-58
2023/07/17 04:44:34;;;;;;;;;;;21.80;57.80;;;;;;5052453;28;20275;-59
2023/07/17 04:47:00;;;;;;;;;;;21.80;57.80;;;;;;5052698;28;19917;-57
2023/07/17 04:49:25;;;;;;;;;;;21.80;57.80;;;;;;5052281;28;20103;-58
2023/07/17 04:51:51;;;;;;;;;;;21.80;57.90;;;;;;5052660;28;20263;-58
2023/07/17 04:54:17;;;;;;;;;;;21.80;57.90;;;;;;5052646;28;20008;-58
2023/07/17 04:56:42;;;;;;;;;;;21.80;57.80;;;;;;5052523;28;19921;-58
2023/07/17 04:59:08;;;;;;;;;;;21.70;57.80;;;;;;5052402;28;19924;-57
2023/07/17 05:01:33;;;;;;;;;;;21.80;57.90;;;;;;5053329;28;20031;-59
2023/07/17 05:03:59;;;;;;;;;;;21.80;57.80;;;;;;5052392;28;19917;-60
2023/07/17 05:06:24;;;;;;;;;;;21.80;57.80;;;;;;5052290;28;19920;-58
2023/07/17 05:08:49;;;;;;;;;;;21.70;57.80;;;;;;5082726;28;19920;-58
2023/07/17 05:11:16;;;;;;;;;;;21.70;57.90;;;;;;5075466;28;19973;-58
2023/07/17 05:13:42;;;;;;;;;;;21.80;57.90;;;;;;5074474;28;19923;-58
2023/07/17 05:16:07;;;;;;;;;;;21.70;57.90;;;;;;5075422;28;19916;-58
2023/07/17 05:18:32;;;;;;;;;;;21.70;57.90;;;;;;5075237;28;20363;-58
2023/07/17 05:20:58;;;;;;;;;;;21.70;57.90;;;;;;5075319;28;19916;-58
2023/07/17 05:23:23;;;;;;;;;;;21.70;57.90;;;;;;5074208;28;19939;-58
2023/07/17 05:25:52;;;;;;;;;;;21.70;57.90;;;;;;5093018;28;20007;-58
2023/07/17 05:28:17;;;;;;;;;;;21.70;58.00;;;;;;5074742;28;19925;-58
2023/07/17 05:30:43;;;;;;;;;;;21.70;57.90;;;;;;5092026;28;20023;-59
2023/07/17 05:33:08;;;;;;;;;;;21.70;58.00;;;;;;5078836;28;20252;-59
2023/07/17 05:35:34;;;;;;;;;;;21.70;58.00;;;;;;5089145;28;19927;-59
2023/07/17 05:37:59;;;;;;;;;;;21.60;58.10;;;;;;5089870;28;20395;-59
2023/07/17 05:40:25;;;;;;;;;;;21.70;58.00;;;;;;5091378;28;19921;-60
2023/07/17 05:42:50;;;;;;;;;;;21.70;58.10;;;;;;5057505;28;20009;-59
2023/07/17 05:45:16;;;;;;;;;;;21.70;58.10;;;;;;5053416;28;19927;-59
2023/07/17 05:47:41;;;;;;;;;;;21.70;58.20;;;;;;5054009;28;20058;-59
2023/07/17 05:50:08;;;;;;;;;;;21.70;58.10;;;;;;5063102;28;19924;-59
2023/07/17 05:52:33;;;;;;;;;;;21.70;58.10;;;;;;5071584;28;19930;-59
2023/07/17 05:54:59;;;;;;;;;;;21.70;58.20;;;;;;5071660;28;19920;-59
2023/07/17 05:57:24;;;;;;;;;;;21.70;58.20;;;;;;5072534;28;20394;-59
2023/07/17 05:59:50;;;;;;;;;;;21.70;58.20;;;;;;5075408;28;19927;-59
2023/07/17 06:02:15;;;;;;;;;;;21.70;58.20;;;;;;5075876;28;19924;-59
2023/07/17 06:04:41;;;;;;;;;;;21.70;58.20;;;;;;5059920;28;19964;-60
2023/07/17 06:07:06;;;;;;;;;;;21.70;58.30;;;;;;5062930;28;19931;-60
2023/07/17 06:09:34;;;;;;;;;;;21.70;58.20;;;;;;5054079;28;20019;-60
2023/07/17 06:12:00;;;;;;;;;;;21.70;58.20;;;;;;5053640;28;20531;-59
2023/07/17 06:14:26;;;;;;;;;;;21.70;58.20;;;;;;5062615;28;19920;-60
2023/07/17 06:16:51;;;;;;;;;;;21.70;58.20;;;;;;5075566;28;19920;-60
2023/07/17 06:19:17;;;;;;;;;;;21.70;58.20;;;;;;5055378;28;19920;-60
2023/07/17 06:21:42;;;;;;;;;;;21.70;58.20;;;;;;5052240;28;19924;-58
2023/07/17 06:24:07;;;;;;;;;;;21.70;58.20;;;;;;5064949;28;20517;-58
2023/07/17 06:26:33;;;;;;;;;;;21.70;58.40;;;;;;5045303;28;19932;-58
2023/07/17 06:28:59;;;;;;;;;;;21.70;58.50;;;;;;5064208;28;20461;-59
2023/07/17 06:31:25;;;;;;;;;;;21.70;58.40;;;;;;5061817;28;19927;-58
2023/07/17 06:33:50;;;;;;;;;;;21.70;58.50;;;;;;5043729;28;19924;-59
2023/07/17 06:36:16;;;;;;;;;;;21.70;58.40;;;;;;5047387;28;19928;-58
2023/07/17 06:38:41;;;;;;;;;;;21.80;58.50;;;;;;5052521;28;19984;-58
2023/07/17 06:41:06;;;;;;;;;;;21.70;58.70;;;;;;5067237;28;20011;-59
2023/07/17 06:43:32;;;;;;;;;;;21.70;58.40;;;;;;5072870;28;19928;-59
2023/07/17 06:45:57;;;;;;;;;;;21.80;58.70;;;;;;5067564;28;20082;-59
2023/07/17 06:48:23;;;;;;;;;;;21.80;58.70;;;;;;5073795;28;19929;-59
2023/07/17 06:50:48;;;;;;;;;;;21.80;58.80;;;;;;5056507;28;19928;-59
2023/07/17 06:53:14;;;;;;;;;;;21.80;59.60;;;;;;5056128;28;19924;-59
2023/07/17 06:55:39;;;;;;;;;;;21.80;58.80;;;;;;5071766;28;20017;-58
2023/07/17 06:58:05;;;;;;;;;;;21.80;58.80;;;;;;5055525;28;19925;-59
2023/07/17 07:00:30;;;;;;;;;;;21.80;59.30;;;;;;5068080;28;20442;-59
2023/07/17 07:02:56;;;;;;;;;;;21.80;59.10;;;;;;5075006;28;20024;-60
2023/07/17 07:05:21;;;;;;;;;;;21.80;59.20;;;;;;5072204;28;20391;-57
2023/07/17 07:07:47;;;;;;;;;;;21.80;59.50;;;;;;5057873;28;20373;-58
2023/07/17 07:10:12;;;;;;;;;;;21.80;60.40;;;;;;5058739;28;20350;-60
2023/07/17 07:12:38;;;;;;;;;;;21.90;59.80;;;;;;5074252;28;19964;-58
2023/07/17 07:15:05;;;;;;;;;;;21.90;60.00;;;;;;5054557;28;19924;-59
2023/07/17 07:17:30;;;;;;;;;;;21.90;60.00;;;;;;5074234;28;19932;-59
2023/07/17 07:19:56;;;;;;;;;;;21.90;60.00;;;;;;5076219;28;19924;-59
2023/07/17 07:22:21;;;;;;;;;;;21.90;60.10;;;;;;5056107;28;20346;-59
2023/07/17 07:24:47;;;;;;;;;;;21.90;60.10;;;;;;5055261;28;19924;-59
2023/07/17 07:27:12;;;;;;;;;;;21.90;60.10;;;;;;5071784;28;19967;-60
2023/07/17 07:29:38;;;;;;;;;;;22.00;60.10;;;;;;5055113;28;19932;-60
2023/07/17 07:32:04;;;;;;;;;;;22.00;60.10;;;;;;5072889;28;20295;-59
2023/07/17 07:34:29;;;;;;;;;;;22.00;60.00;;;;;;5072653;28;20339;-60
2023/07/17 07:36:55;;;;;;;;;;;22.00;60.10;;;;;;5055696;28;19924;-60
2023/07/17 07:39:20;;;;;;;;;;;22.00;60.00;;;;;;5075247;28;19920;-59
2023/07/17 07:41:46;;;;;;;;;;;22.10;60.10;;;;;;5072224;28;20386;-61
2023/07/17 07:44:11;;;;;;;;;;;22.00;60.10;;;;;;5052544;28;19993;-59
2023/07/17 07:46:37;;;;;;;;;;;22.00;60.00;;;;;;5056147;28;19951;-60
2023/07/17 07:49:03;;;;;;;;;;;22.00;59.90;;;;;;5072256;28;19968;-60
2023/07/17 07:51:29;;;;;;;;;;;22.00;59.80;;;;;;5052751;28;19929;-58
2023/07/17 07:53:54;;;;;;;;;;;22.10;59.90;;;;;;5055321;28;19935;-60
2023/07/17 07:56:20;;;;;;;;;;;22.00;59.80;;;;;;5072562;28;19957;-60
2023/07/17 07:58:45;;;;;;;;;;;22.10;60.00;;;;;;5074417;28;19924;-60
2023/07/17 08:01:11;;;;;;;;;;;22.10;60.00;;;;;;5071346;28;20023;-58
2023/07/17 08:03:38;;;;;;;;;;;22.10;60.00;;;;;;5055645;28;19924;-58
2023/07/17 08:06:03;;;;;;;;;;;22.10;60.20;;;;;;5051739;28;19935;-58
2023/07/17 08:08:29;;;;;;;;;;;22.10;60.20;;;;;;5072433;28;19928;-59
2023/07/17 08:10:54;;;;;;;;;;;22.10;60.10;;;;;;5056211;28;19932;-58
2023/07/17 08:13:20;;;;;;;;;;;22.10;60.10;;;;;;5053813;28;20284;-58
2023/07/17 08:15:46;;;;;;;;;;;22.20;60.00;;;;;;5073918;28;20326;-58
2023/07/17 08:18:12;;;;;;;;;;;22.10;60.00;;;;;;5070609;28;20329;-57
2023/07/17 08:20:37;;;;;;;;;;;22.20;59.90;;;;;;5050625;28;19920;-57
2023/07/17 08:23:03;;;;;;;;;;;22.20;59.90;;;;;;5073123;28;19935;-58
2023/07/17 08:25:28;;;;;;;;;;;22.20;59.80;;;;;;5070874;28;20155;-57
2023/07/17 08:27:54;;;;;;;;;;;22.20;59.70;;;;;;5052419;28;20064;-57
2023/07/17 08:30:20;;;;;;;;;;;22.30;59.70;;;;;;5052936;28;19999;-56
2023/07/17 08:32:45;;;;;;;;;;;22.20;59.50;;;;;;5048304;28;19935;-59
2023/07/17 08:35:11;;;;;;;;;;;22.20;59.40;;;;;;5068337;28;19920;-59
2023/07/17 08:37:36;;;;;;;;;;;22.20;59.30;;;;;;5072772;28;19931;-59
2023/07/17 08:40:02;;;;;;;;;;;22.20;59.20;;;;;;5072708;28;20426;-58
2023/07/17 08:42:27;;;;;;;;;;;22.20;59.00;;;;;;5069348;28;19930;-58
2023/07/17 08:44:53;;;;;;;;;;;22.20;59.00;;;;;;5051292;28;20057;-58
2023/07/17 08:47:19;;;;;;;;;;;22.20;58.90;;;;;;5050753;28;20387;-58
2023/07/17 08:49:45;;;;;;;;;;;22.20;58.90;;;;;;5065991;28;20035;-58
2023/07/17 08:52:11;;;;;;;;;;;22.20;58.70;;;;;;5048586;28;20204;-58
2023/07/17 08:54:36;;;;;;;;;;;22.20;58.70;;;;;;5069665;28;20299;-57
2023/07/17 08:57:03;;;;;;;;;;;22.20;58.70;;;;;;5051475;28;19928;-57
2023/07/17 08:59:29;;;;;;;;;;;22.30;59.00;;;;;;5053911;28;20410;-57
2023/07/17 09:01:55;;;;;;;;;;;22.30;59.00;;;;;;5071690;28;20346;-57
2023/07/17 09:04:21;;;;;;;;;;;22.30;59.10;;;;;;5051365;28;19960;-57
2023/07/17 09:06:46;;;;;;;;;;;22.30;59.10;;;;;;5049246;28;19977;-57
2023/07/17 09:09:12;;;;;;;;;;;22.30;59.20;;;;;;5071186;28;19968;-58
2023/07/17 09:11:38;;;;;;;;;;;22.30;59.00;;;;;;5066270;28;20019;-58
2023/07/17 09:14:06;;;;;;;;;;;22.30;59.10;;;;;;5072835;28;19935;-57
2023/07/17 09:16:32;;;;;;;;;;;22.40;59.10;;;;;;5076856;28;20453;-57
2023/07/17 09:18:57;;;;;;;;;;;22.30;59.10;;;;;;5073707;28;19928;-57
2023/07/17 09:21:24;;;;;;;;;;;22.40;59.30;;;;;;5056814;28;20042;-57
2023/07/17 09:23:52;;;;;;;;;;;22.40;59.30;;;;;;5072097;28;20001;-57
2023/07/17 09:26:19;;;;;;;;;;;22.40;59.50;;;;;;5053069;28;19931;-57
2023/07/17 09:28:49;;;;;;;;;;;22.50;59.60;;;;;;5067981;28;20304;-58
2023/07/17 09:31:21;;;;;;;;;;;22.50;59.30;;;;;;5052100;28;19924;-58
2023/07/17 09:33:47;;;;;;;;;;;22.60;59.00;;;;;;5055419;28;19924;-58
2023/07/17 09:36:12;;;;;;;;;;;22.60;58.70;;;;;;5064087;28;19994;-58
2023/07/17 09:38:38;;;;;;;;;;;22.60;58.60;;;;;;5067438;28;19971;-58
2023/07/17 09:41:16;;;;;;;;;;;22.60;58.60;;;;;;5055712;28;20410;-58
2023/07/17 09:43:41;;;;;;;;;;;22.70;59.00;;;;;;5053223;28;19930;-58
2023/07/17 09:46:07;;;;;;;;;;;22.70;59.00;;;;;;5047572;28;19921;-58
2023/07/17 09:48:32;;;;;;;;;;;22.80;58.90;;;;;;5066711;28;19940;-58
2023/07/17 09:50:58;;;;;;;;;;;22.80;58.80;;;;;;5070281;28;20230;-58
2023/07/17 09:53:24;;;;;;;;;;;22.80;58.70;;;;;;5052618;28;19926;-60
2023/07/17 09:55:51;;;;;;;;;;;22.80;58.70;;;;;;5067733;28;20444;-59
2023/07/17 09:58:17;;;;;;;;;;;22.90;58.60;;;;;;5067763;28;19944;-58
2023/07/17 10:00:43;;;;;;;;;;;22.90;58.70;;;;;;5059323;28;19929;-60
2023/07/17 10:03:09;;;;;;;;;;;23.00;58.70;;;;;;5068522;28;19955;-58
2023/07/17 10:05:35;;;;;;;;;;;23.00;58.70;;;;;;5050838;28;20011;-58
2023/07/17 10:08:03;;;;;;;;;;;23.00;58.50;;;;;;5069670;28;19932;-58
2023/07/17 10:10:31;;;;;;;;;;;23.00;58.30;;;;;;5066312;28;21289;-58
2023/07/17 10:12:57;;;;;;;;;;;23.00;58.40;;;;;;5068766;28;19978;-61
2023/07/17 10:15:23;;;;;;;;;;;22.90;58.30;;;;;;5054855;28;19946;-61
2023/07/17 10:17:57;;;;;;;;;;;23.00;58.10;;;;;;5052973;28;20144;-60
2023/07/17 10:20:23;;;;;;;;;;;23.00;58.00;;;;;;5066915;28;20011;-61
2023/07/17 10:22:49;;;;;;;;;;;22.90;58.10;;;;;;5068542;28;20007;-62
2023/07/17 10:28:00;;;;;;;;;;;23.00;57.70;;;;;;5057322;28;20374;-62
2023/07/17 10:30:28;;;;;;;;;;;23.10;57.60;;;;;;5041099;28;19931;-62
2023/07/17 10:33:13;;;;;;;;;;;23.10;57.50;;;;;;5047649;28;20364;-62
2023/07/17 10:36:00;;;;;;;;;;;23.00;58.10;;;;;;5048404;28;19963;-62
2023/07/17 10:38:28;;;;;;;;;;;23.00;57.30;;;;;;5048198;28;20289;-63
2023/07/17 10:41:13;;;;;;;;;;;23.00;57.00;;;;;;5046782;28;19990;-63
2023/07/17 10:43:54;;;;;;;;;;;23.00;56.90;;;;;;5042232;28;19932;-63
2023/07/17 10:46:24;;;;;;;;;;;23.00;56.70;;;;;;5034627;28;20065;-61
2023/07/17 10:48:50;;;;;;;;;;;23.00;56.40;;;;;;5039239;28;19922;-61
2023/07/17 10:51:15;;;;;;;;;;;23.00;56.60;;;;;;5039879;28;19931;-63
2023/07/17 10:53:41;;;;;;;;;;;23.10;56.50;;;;;;5034772;28;19943;-62
2023/07/17 10:56:06;;;;;;;;;;;23.10;57.20;;;;;;5048301;28;20273;-62
2023/07/17 10:58:32;;;;;;;;;;;23.10;56.40;;;;;;5034544;28;19929;-61
2023/07/17 11:01:03;;;;;;;;;;;23.10;56.20;;;;;;5034732;28;20310;-62
2023/07/17 11:03:28;;;;;;;;;;;23.20;56.30;;;;;;5057636;28;20023;-62
2023/07/17 11:05:56;;;;;;;;;;;23.20;56.40;;;;;;5035360;28;20419;-62
2023/07/17 11:08:24;;;;;;;;;;;23.30;56.50;;;;;;5040258;28;19929;-62
2023/07/17 11:10:49;;;;;;;;;;;23.30;56.50;;;;;;5026733;28;19926;-65
2023/07/17 11:13:15;;;;;;;;;;;23.30;56.70;;;;;;5039881;28;19925;-61
2023/07/17 11:15:42;;;;;;;;;;;23.40;57.50;;;;;;5044088;28;19935;-64
2023/07/17 11:18:08;;;;;;;;;;;23.40;57.30;;;;;;5043181;28;19929;-62
2023/07/17 11:20:37;;;;;;;;;;;23.40;57.10;;;;;;5035820;28;19970;-62
2023/07/17 11:23:03;;;;;;;;;;;23.40;56.90;;;;;;5035908;28;19929;-62
2023/07/17 11:25:29;;;;;;;;;;;23.40;56.80;;;;;;5042477;28;19978;-63
2023/07/17 11:27:56;;;;;;;;;;;23.50;56.60;;;;;;5041276;28;20433;-63
2023/07/17 11:30:24;;;;;;;;;;;23.40;56.10;;;;;;5028007;28;19980;-63
2023/07/17 11:32:54;;;;;;;;;;;23.50;55.90;;;;;;5051768;28;20086;-61
2023/07/17 11:35:20;;;;;;;;;;;23.40;56.10;;;;;;5035705;28;19948;-62
2023/07/17 11:37:45;;;;;;;;;;;23.40;56.10;;;;;;5034917;28;19954;-63
2023/07/17 11:40:11;;;;;;;;;;;23.40;56.10;;;;;;5026621;28;19991;-62
2023/07/17 11:42:57;;;;;;;;;;;23.40;56.10;;;;;;5022199;28;20667;-62
2023/07/17 11:45:24;;;;;;;;;;;23.50;55.90;;;;;;5013991;28;20301;-59
2023/07/17 11:47:50;;;;;;;;;;;23.50;55.90;;;;;;5019562;28;20277;-66
2023/07/17 11:50:19;;;;;;;;;;;23.50;56.10;;;;;;5022637;28;19933;-67
2023/07/17 11:52:45;;;;;;;;;;;23.50;56.00;;;;;;5029946;28;19924;-67
2023/07/17 11:55:10;;;;;;;;;;;23.50;55.80;;;;;;5026738;28;19936;-67
2023/07/17 11:57:36;;;;;;;;;;;23.50;55.80;;;;;;5028995;28;19964;-66
2023/07/17 12:00:06;;;;;;;;;;;23.50;55.80;;;;;;5027613;28;20398;-67
2023/07/17 12:02:32;;;;;;;;;;;23.50;55.60;;;;;;5029312;28;20382;-67
2023/07/17 12:05:01;;;;;;;;;;;23.50;55.50;;;;;;5026726;28;20016;-66
2023/07/17 12:07:26;;;;;;;;;;;23.50;55.40;;;;;;5042570;28;20301;-66
2023/07/17 12:09:51;;;;;;;;;;;23.50;55.30;;;;;;5018981;28;19929;-69
2023/07/17 12:12:17;;;;;;;;;;;23.40;55.50;;;;;;5008644;28;20315;-67
2023/07/17 12:14:42;;;;;;;;;;;23.40;55.70;;;;;;5012268;28;19931;-66
2023/07/17 12:17:08;;;;;;;;;;;23.40;55.80;;;;;;5012417;28;20355;-63
2023/07/17 12:19:34;;;;;;;;;;;23.40;56.10;;;;;;5011836;28;20002;-62
2023/07/17 12:22:03;;;;;;;;;;;23.40;56.70;;;;;;5021674;28;19925;-61
2023/07/17 12:24:28;;;;;;;;;;;23.40;57.00;;;;;;5021542;28;19929;-61
2023/07/17 12:26:54;;;;;;;;;;;23.40;57.20;;;;;;5006921;28;19960;-61
2023/07/17 12:29:19;;;;;;;;;;;23.40;57.60;;;;;;5032282;28;19921;-61
2023/07/17 12:31:45;;;;;;;;;;;23.40;57.80;;;;;;5009969;28;20067;-61
2023/07/17 12:34:10;;;;;;;;;;;23.40;57.90;;;;;;5033984;28;20196;-61
2023/07/17 12:36:36;;;;;;;;;;;23.40;58.20;;;;;;5006648;28;20741;-61
2023/07/17 12:39:10;;;;;;;;;;;23.40;58.30;;;;;;5023185;28;19925;-60
2023/07/17 12:41:36;;;;;;;;;;;23.40;58.40;;;;;;5021283;28;19940;-59
2023/07/17 12:44:01;;;;;;;;;;;23.40;58.70;;;;;;5018140;28;20350;-60
2023/07/17 12:46:27;;;;;;;;;;;23.50;58.80;;;;;;5015697;28;20023;-63
2023/07/17 12:48:52;;;;;;;;;;;23.50;59.00;;;;;;5032011;28;20007;-66
2023/07/17 12:51:18;;;;;;;;;;;23.50;59.10;;;;;;5019706;28;19928;-64
2023/07/17 12:53:43;;;;;;;;;;;23.50;59.20;;;;;;5013071;28;19926;-65
2023/07/17 12:56:09;;;;;;;;;;;23.50;59.20;;;;;;5013957;28;19921;-64
2023/07/17 12:58:35;;;;;;;;;;;23.50;59.30;;;;;;5014750;28;19929;-63
2023/07/17 13:01:01;;;;;;;;;;;23.60;59.40;;;;;;5022062;28;19936;-63
2023/07/17 13:03:26;;;;;;;;;;;23.60;59.40;;;;;;5030299;28;19936;-65
2023/07/17 13:05:52;;;;;;;;;;;23.70;59.60;;;;;;5022305;28;19933;-65
2023/07/17 13:08:17;;;;;;;;;;;23.60;59.40;;;;;;5023345;28;20217;-63
2023/07/17 13:10:43;;;;;;;;;;;23.60;59.50;;;;;;5026147;28;19921;-62
2023/07/17 13:13:08;;;;;;;;;;;23.60;59.40;;;;;;5025331;28;19928;-61
2023/07/17 13:15:34;;;;;;;;;;;23.60;59.50;;;;;;5025529;28;20377;-61
2023/07/17 13:17:59;;;;;;;;;;;23.60;59.50;;;;;;5024152;28;20062;-62
2023/07/17 13:20:25;;;;;;;;;;;23.60;59.60;;;;;;5029608;28;19925;-61
2023/07/17 13:22:50;;;;;;;;;;;23.60;59.70;;;;;;5026667;28;19925;-61
2023/07/17 13:25:15;;;;;;;;;;;23.60;59.80;;;;;;5026764;28;19921;-62
2023/07/17 13:27:41;;;;;;;;;;;23.50;59.90;;;;;;5024929;28;19925;-62
2023/07/17 13:30:07;;;;;;;;;;;23.50;60.20;;;;;;5026094;28;20016;-61
2023/07/17 13:32:33;;;;;;;;;;;23.60;60.30;;;;;;5024998;28;19924;-61
2023/07/17 13:34:58;;;;;;;;;;;23.50;60.50;;;;;;5022036;28;20440;-62
2023/07/17 13:37:24;;;;;;;;;;;23.70;60.50;;;;;;5022496;28;20248;-59
2023/07/17 13:39:49;;;;;;;;;;;23.50;60.50;;;;;;5024667;28;19956;-60
2023/07/17 13:42:15;;;;;;;;;;;23.60;60.70;;;;;;5025309;28;20168;-59
2023/07/17 13:44:40;;;;;;;;;;;23.60;60.80;;;;;;5024432;28;19932;-59
2023/07/17 13:47:06;;;;;;;;;;;23.60;60.90;;;;;;5026994;28;19929;-59
2023/07/17 13:49:31;;;;;;;;;;;23.50;60.50;;;;;;5025591;28;19921;-59
2023/07/17 13:51:57;;;;;;;;;;;23.50;60.60;;;;;;5026563;28;20007;-61
2023/07/17 13:54:22;;;;;;;;;;;23.50;60.50;;;;;;5017429;28;19975;-61
2023/07/17 13:56:48;;;;;;;;;;;23.60;60.50;;;;;;5029014;28;20032;-61
2023/07/17 13:59:13;;;;;;;;;;;23.50;60.30;;;;;;5030561;28;20015;-61
2023/07/17 14:01:39;;;;;;;;;;;23.50;60.30;;;;;;5023078;28;19960;-62
2023/07/17 14:04:05;;;;;;;;;;;23.50;60.20;;;;;;5028138;28;19949;-62
2023/07/17 14:06:31;;;;;;;;;;;23.50;60.20;;;;;;5031241;28;19930;-62
2023/07/17 14:08:56;;;;;;;;;;;23.50;60.20;;;;;;5021321;28;20432;-61
2023/07/17 14:11:22;;;;;;;;;;;23.50;60.20;;;;;;5029476;28;20008;-62
2023/07/17 14:13:48;;;;;;;;;;;23.50;60.20;;;;;;5017908;28;21963;-62